createdAt,value
2022-08-11T00:01:25.117Z,17.33
2022-08-11T00:04:14.699Z,16.35
2022-08-11T00:07:06.174Z,17.45
2022-08-11T00:09:55.561Z,17.13
2022-08-11T00:12:45.192Z,17.27
2022-08-11T00:15:43.726Z,15.45
2022-08-11T00:18:41.074Z,17.30
2022-08-11T00:21:54.587Z,17.10
2022-08-11T00:24:52.597Z,16.77
2022-08-11T00:27:43.675Z,17.92
2022-08-11T00:30:41.188Z,17.00
2022-08-11T00:33:44.979Z,17.30
2022-08-11T00:36:43.738Z,17.42
2022-08-11T00:39:34.628Z,18.17
2022-08-11T00:42:33.546Z,18.73
2022-08-11T00:45:27.880Z,18.55
2022-08-11T00:48:30.325Z,18.55
2022-08-11T00:52:04.687Z,19.10
2022-08-11T00:55:37.260Z,20.83
2022-08-11T00:59:34.268Z,20.50
2022-08-11T01:02:19.575Z,21.27
2022-08-11T01:05:36.760Z,25.85
2022-08-11T01:09:10.521Z,27.95
2022-08-11T01:12:26.234Z,29.42
2022-08-11T01:15:58.586Z,33.33
2022-08-11T01:19:10.875Z,31.65
2022-08-11T01:22:52.768Z,33.55
2022-08-11T01:26:31.974Z,33.00
2022-08-11T01:29:59.642Z,34.45
2022-08-11T01:33:32.445Z,35.40
2022-08-11T01:36:56.970Z,36.97
2022-08-11T01:40:21.357Z,37.47
2022-08-11T01:43:55.362Z,36.80
2022-08-11T01:46:49.498Z,37.38
2022-08-11T01:50:09.971Z,39.75
2022-08-11T01:53:16.387Z,39.85
2022-08-11T01:56:18.460Z,36.83
2022-08-11T01:59:16.732Z,39.28
2022-08-11T02:02:21.528Z,38.30
2022-08-11T02:05:20.310Z,38.97
2022-08-11T02:08:16.771Z,40.40
2022-08-11T02:11:35.539Z,39.90
2022-08-11T02:14:32.608Z,36.22
2022-08-11T02:17:24.050Z,38.47
2022-08-11T02:20:38.868Z,35.92
2022-08-11T02:24:04.075Z,38.08
2022-08-11T02:27:01.402Z,36.22
2022-08-11T02:29:56.431Z,34.97
2022-08-11T02:33:09.486Z,36.65
2022-08-11T02:36:08.371Z,37.15
2022-08-11T02:39:04.553Z,37.42
2022-08-11T02:42:32.681Z,38.55
2022-08-11T02:45:40.437Z,34.15
2022-08-11T02:49:04.941Z,37.40
2022-08-11T02:52:06.301Z,35.85
2022-08-11T02:55:48.047Z,37.08
2022-08-11T02:58:37.662Z,35.33
2022-08-11T03:01:42.117Z,35.20
2022-08-11T03:04:38.674Z,34.38
2022-08-11T03:07:33.441Z,39.13
2022-08-11T03:10:29.328Z,38.03
2022-08-11T03:13:41.316Z,37.63
2022-08-11T03:16:48.311Z,37.22
2022-08-11T03:19:47.630Z,36.80
2022-08-11T03:22:39.300Z,36.95
2022-08-11T03:25:35.433Z,36.20
2022-08-11T03:28:31.219Z,38.25
2022-08-11T03:31:28.311Z,38.80
2022-08-11T03:34:19.198Z,38.53
2022-08-11T03:37:54.244Z,37.42
2022-08-11T03:42:01.596Z,34.17
2022-08-11T03:44:35.160Z,34.17
2022-08-11T03:47:41.747Z,35.95
2022-08-11T03:50:55.665Z,36.85
2022-08-11T03:54:15.995Z,35.60
2022-08-11T03:57:53.133Z,34.53
2022-08-11T04:01:03.968Z,35.92
2022-08-11T04:04:23.576Z,35.53
2022-08-11T04:07:44.221Z,36.33
2022-08-11T04:11:09.758Z,35.75
2022-08-11T04:15:01.034Z,35.30
2022-08-11T04:18:20.685Z,33.55
2022-08-11T04:21:36.386Z,36.92
2022-08-11T04:24:47.029Z,38.75
2022-08-11T04:28:29.100Z,38.88
2022-08-11T04:31:51.460Z,34.90
2022-08-11T04:35:07.199Z,36.25
2022-08-11T04:38:25.313Z,34.70
2022-08-11T04:42:05.058Z,34.55
2022-08-11T04:45:25.166Z,36.13
2022-08-11T04:48:57.562Z,35.03
2022-08-11T04:52:38.292Z,35.03
2022-08-11T04:56:03.064Z,36.78
2022-08-11T04:59:35.401Z,37.78
2022-08-11T05:02:58.829Z,37.38
2022-08-11T05:06:05.944Z,39.08
2022-08-11T05:09:23.486Z,40.50
2022-08-11T05:12:30.057Z,45.05
2022-08-11T05:15:43.045Z,45.75
2022-08-11T05:18:52.180Z,42.20
2022-08-11T05:22:01.750Z,41.50
2022-08-11T05:25:10.674Z,43.85
2022-08-11T05:28:23.525Z,41.13
2022-08-11T05:31:32.229Z,40.55
2022-08-11T05:34:42.406Z,40.60
2022-08-11T05:37:39.596Z,40.58
2022-08-11T05:40:51.108Z,38.42
2022-08-11T05:44:21.890Z,39.85
2022-08-11T05:47:27.145Z,35.65
2022-08-11T05:50:35.303Z,36.17
2022-08-11T05:53:46.406Z,37.95
2022-08-11T05:56:36.709Z,32.60
2022-08-11T05:59:26.137Z,33.60
2022-08-11T06:02:15.362Z,30.25
2022-08-11T06:05:03.878Z,31.70
2022-08-11T06:07:57.340Z,28.63
2022-08-11T06:10:47.862Z,30.23
2022-08-11T06:13:36.622Z,29.42
2022-08-11T06:16:29.517Z,27.27
2022-08-11T06:19:21.106Z,23.63
2022-08-11T06:22:12.281Z,21.63
2022-08-11T06:25:02.827Z,20.35
2022-08-11T06:27:57.487Z,20.48
2022-08-11T06:30:49.021Z,16.67
2022-08-11T06:33:48.086Z,16.60
2022-08-11T06:36:47.267Z,15.77
2022-08-11T06:39:48.310Z,15.40
2022-08-11T06:42:47.561Z,14.55
2022-08-11T06:45:43.575Z,13.80
2022-08-11T06:48:33.996Z,13.30
2022-08-11T06:51:21.783Z,14.20
2022-08-11T06:54:13.538Z,14.82
2022-08-11T06:57:35.723Z,14.13
2022-08-11T07:00:33.117Z,14.80
2022-08-11T07:03:24.409Z,13.63
2022-08-11T07:06:29.079Z,13.88
2022-08-11T07:10:22.246Z,12.40
2022-08-11T07:13:45.145Z,10.30
2022-08-11T07:16:40.795Z,9.35
2022-08-11T07:19:49.388Z,9.25
2022-08-11T07:22:56.081Z,9.15
2022-08-11T07:26:05.407Z,9.27
2022-08-11T07:28:56.342Z,9.10
2022-08-11T07:31:50.180Z,7.82
2022-08-11T07:34:46.299Z,6.20
2022-08-11T07:37:35.424Z,5.85
2022-08-11T07:40:24.509Z,6.60
2022-08-11T07:43:14.059Z,6.63
2022-08-11T07:46:22.253Z,6.70
2022-08-11T07:49:29.999Z,6.70
2022-08-11T07:52:33.491Z,6.22
2022-08-11T07:55:48.950Z,5.85
2022-08-11T07:58:57.619Z,5.68
2022-08-11T08:02:06.549Z,5.45
2022-08-11T08:05:12.697Z,5.35
2022-08-11T08:08:19.711Z,4.90
2022-08-11T08:11:27.303Z,4.80
2022-08-11T08:14:36.108Z,4.53
2022-08-11T08:17:42.509Z,4.57
2022-08-11T08:20:35.412Z,4.55
2022-08-11T08:23:34.347Z,4.55
2022-08-11T08:26:40.162Z,4.78
2022-08-11T08:29:49.676Z,4.80
2022-08-11T08:32:40.195Z,4.90
2022-08-11T08:35:32.914Z,4.70
2022-08-11T08:38:21.286Z,4.78
2022-08-11T08:41:13.253Z,4.93
2022-08-11T08:44:35.072Z,4.80
2022-08-11T08:47:41.537Z,4.70
2022-08-11T08:50:47.009Z,4.75
2022-08-11T08:53:40.008Z,4.65
2022-08-11T08:56:45.177Z,4.72
2022-08-11T08:59:47.933Z,4.35
2022-08-11T09:02:38.712Z,4.32
2022-08-11T09:05:27.352Z,4.82
2022-08-11T09:08:15.925Z,4.68
2022-08-11T09:11:23.712Z,4.38
2022-08-11T09:14:15.192Z,4.65
2022-08-11T09:17:03.820Z,4.68
2022-08-11T09:20:00.214Z,4.80
2022-08-11T09:26:35.589Z,4.50
2022-08-11T09:29:25.436Z,4.50
2022-08-11T09:32:14.943Z,4.95
2022-08-11T09:35:04.639Z,4.95
2022-08-11T09:38:11.107Z,4.65
2022-08-11T09:41:01.075Z,5.40
2022-08-11T09:44:07.043Z,5.55
2022-08-11T09:46:59.532Z,5.80
2022-08-11T09:49:48.926Z,5.53
2022-08-11T09:52:52.241Z,5.53
2022-08-11T09:55:48.952Z,5.80
2022-08-11T09:58:42.323Z,6.50
2022-08-11T10:01:35.545Z,6.93
2022-08-11T10:04:32.566Z,6.82
2022-08-11T10:07:21.485Z,7.00
2022-08-11T10:10:11.268Z,7.20
2022-08-11T10:13:04.133Z,7.03
2022-08-11T10:16:00.227Z,7.25
2022-08-11T10:19:05.296Z,7.10
2022-08-11T10:22:10.250Z,7.60
2022-08-11T10:25:19.578Z,7.80
2022-08-11T10:28:30.373Z,7.65
2022-08-11T10:31:55.438Z,8.15
2022-08-11T10:34:54.637Z,7.95
2022-08-11T10:38:08.587Z,8.70
2022-08-11T10:41:11.131Z,7.82
2022-08-11T10:44:03.344Z,8.30
2022-08-11T10:47:11.147Z,8.52
2022-08-11T10:50:17.834Z,8.82
2022-08-11T10:53:26.497Z,9.13
2022-08-11T10:56:34.018Z,9.18
2022-08-11T10:59:23.575Z,9.20
2022-08-11T11:02:15.210Z,9.10
2022-08-11T11:05:10.103Z,9.40
2022-08-11T11:08:23.774Z,9.52
2022-08-11T11:11:18.329Z,9.05
2022-08-11T11:14:27.213Z,9.13
2022-08-11T11:17:34.991Z,9.23
2022-08-11T11:20:36.301Z,8.75
2022-08-11T11:23:29.361Z,8.63
2022-08-11T11:26:38.403Z,8.77
2022-08-11T11:29:43.670Z,9.00
2022-08-11T11:32:47.643Z,8.38
2022-08-11T11:35:45.406Z,8.95
2022-08-11T11:38:33.803Z,8.65
2022-08-11T11:41:27.826Z,9.23
2022-08-11T11:44:18.725Z,8.88
2022-08-11T11:47:08.565Z,8.98
2022-08-11T11:49:57.120Z,8.80
2022-08-11T11:52:45.440Z,8.90
2022-08-11T11:55:34.434Z,8.90
2022-08-11T11:58:40.623Z,8.70
2022-08-11T12:01:32.958Z,9.13
2022-08-11T12:04:22.318Z,9.00
2022-08-11T12:07:29.611Z,8.05
2022-08-11T12:10:18.387Z,8.57
2022-08-11T12:13:25.072Z,8.10
2022-08-11T12:16:32.872Z,9.00
2022-08-11T12:19:28.585Z,8.40
2022-08-11T12:22:34.888Z,8.25
2022-08-11T12:25:41.034Z,7.68
2022-08-11T12:28:30.114Z,8.30
2022-08-11T12:31:22.036Z,7.10
2022-08-11T12:34:12.085Z,7.43
2022-08-11T12:37:05.570Z,7.05
2022-08-11T12:40:43.635Z,7.05
2022-08-11T12:43:56.280Z,6.30
2022-08-11T12:46:46.927Z,6.22
2022-08-11T12:49:56.572Z,6.53
2022-08-11T12:52:54.060Z,6.85
2022-08-11T12:56:04.111Z,5.50
2022-08-11T12:59:15.557Z,5.50
2022-08-11T13:02:21.931Z,5.68
2022-08-11T13:05:15.626Z,5.43
2022-08-11T13:08:06.541Z,5.22
2022-08-11T13:11:14.106Z,5.30
2022-08-11T13:14:03.984Z,5.38
2022-08-11T13:17:10.374Z,5.20
2022-08-11T13:20:00.252Z,5.13
2022-08-11T13:22:50.223Z,5.10
2022-08-11T13:25:41.414Z,5.00
2022-08-11T13:28:29.658Z,4.97
2022-08-11T13:31:18.613Z,5.10
2022-08-11T13:34:08.971Z,5.18
2022-08-11T13:37:00.070Z,5.07
2022-08-11T13:39:49.268Z,5.05
2022-08-11T13:42:40.141Z,5.15
2022-08-11T13:45:29.181Z,4.90
2022-08-11T13:48:18.255Z,5.30
2022-08-11T13:51:24.761Z,5.00
2022-08-11T13:54:26.377Z,4.97
2022-08-11T13:58:06.454Z,4.97
2022-08-11T14:00:27.886Z,5.07
2022-08-11T14:03:20.750Z,5.00
2022-08-11T14:06:10.012Z,4.75
2022-08-11T14:08:59.642Z,4.88
2022-08-11T14:12:20.278Z,5.00
2022-08-11T14:15:19.929Z,5.00
2022-08-11T14:18:18.459Z,4.82
2022-08-11T14:21:25.026Z,4.80
2022-08-11T14:24:13.708Z,4.60
2022-08-11T14:27:02.152Z,4.70
2022-08-11T14:29:50.581Z,4.95
2022-08-11T14:32:52.840Z,5.13
2022-08-11T14:35:48.806Z,5.20
2022-08-11T14:38:40.460Z,4.88
2022-08-11T14:42:10.575Z,5.07
2022-08-11T14:45:17.093Z,5.13
2022-08-11T14:48:09.858Z,4.95
2022-08-11T14:50:59.907Z,4.80
2022-08-11T14:53:58.431Z,5.10
2022-08-11T14:56:46.384Z,4.95
2022-08-11T14:59:35.120Z,5.00
2022-08-11T15:02:41.721Z,4.97
2022-08-11T15:05:30.103Z,5.20
2022-08-11T15:08:20.898Z,523.85
2022-08-11T15:11:31.216Z,11.50
2022-08-11T15:14:41.238Z,8.32
2022-08-11T15:17:42.982Z,8.60
2022-08-11T15:20:53.598Z,9.13
2022-08-11T15:24:00.824Z,8.90
2022-08-11T15:27:09.187Z,8.75
2022-08-11T15:30:32.118Z,8.25
2022-08-11T15:33:40.604Z,7.43
2022-08-11T15:36:51.118Z,7.50
2022-08-11T15:40:31.229Z,7.05
2022-08-11T15:43:40.631Z,6.75
2022-08-11T15:46:32.944Z,7.00
2022-08-11T15:49:24.905Z,7.28
2022-08-11T15:52:37.878Z,7.22
2022-08-11T15:55:29.852Z,7.40
2022-08-11T15:58:38.581Z,7.15
2022-08-11T16:01:46.116Z,7.68
2022-08-11T16:04:37.599Z,7.97
2022-08-11T16:07:30.254Z,7.63
2022-08-11T16:10:22.462Z,7.93
2022-08-11T16:13:32.682Z,8.00
2022-08-11T16:16:20.807Z,8.10
2022-08-11T16:19:11.404Z,7.90
2022-08-11T16:21:59.442Z,7.03
2022-08-11T16:27:02.605Z,8.30
2022-08-11T16:28:02.353Z,9.48
2022-08-11T16:30:53.385Z,8.80
2022-08-11T16:33:49.726Z,8.48
2022-08-11T16:36:57.456Z,7.20
2022-08-11T16:39:48.347Z,7.18
2022-08-11T16:43:09.017Z,7.28
2022-08-11T16:46:33.172Z,7.28
2022-08-11T16:49:25.938Z,7.30
2022-08-11T16:52:14.643Z,7.40
2022-08-11T16:55:03.845Z,7.22
2022-08-11T16:58:10.077Z,7.25
2022-08-11T17:01:01.721Z,7.18
2022-08-11T17:04:14.800Z,7.50
2022-08-11T17:07:42.198Z,7.45
2022-08-11T17:11:03.793Z,7.03
2022-08-11T17:13:59.241Z,7.95
2022-08-11T17:16:53.102Z,7.38
2022-08-11T17:20:39.608Z,7.18
2022-08-11T17:23:14.554Z,7.53
2022-08-11T17:26:03.293Z,6.68
2022-08-11T17:28:57.896Z,7.40
2022-08-11T17:32:06.910Z,7.30
2022-08-11T17:35:17.316Z,6.70
2022-08-11T17:38:09.399Z,7.57
2022-08-11T17:41:23.367Z,7.13
2022-08-11T17:44:29.974Z,7.47
2022-08-11T17:47:38.427Z,8.30
2022-08-11T17:50:28.444Z,8.20
2022-08-11T17:53:34.786Z,8.60
2022-08-11T17:56:41.705Z,8.52
2022-08-11T17:59:49.081Z,7.82
2022-08-11T18:02:58.015Z,8.32
2022-08-11T18:05:49.039Z,9.50
2022-08-11T18:08:59.297Z,8.95
2022-08-11T18:12:11.590Z,8.65
2022-08-11T18:15:18.843Z,9.85
2022-08-11T18:18:26.483Z,9.10
2022-08-11T18:21:35.658Z,8.75
2022-08-11T18:24:45.429Z,8.75
2022-08-11T18:27:52.925Z,9.45
2022-08-11T18:31:03.737Z,10.55
2022-08-11T18:34:13.526Z,10.90
2022-08-11T18:37:25.929Z,11.48
2022-08-11T18:40:36.558Z,13.52
2022-08-11T18:43:45.281Z,14.10
2022-08-11T18:46:54.004Z,15.23
2022-08-11T18:50:06.560Z,15.05
2022-08-11T18:53:15.244Z,16.27
2022-08-11T18:56:21.272Z,18.05
2022-08-11T18:59:30.052Z,22.60
2022-08-11T19:02:49.127Z,24.13
2022-08-11T19:06:35.358Z,33.10
2022-08-11T19:09:26.256Z,38.40
2022-08-11T19:12:32.931Z,45.70
2022-08-11T19:15:39.772Z,51.80
2022-08-11T19:18:46.645Z,56.53
2022-08-11T19:21:56.153Z,60.35
2022-08-11T19:25:05.438Z,59.70
2022-08-11T19:28:12.704Z,68.88
2022-08-11T19:31:19.258Z,74.45
2022-08-11T19:34:26.628Z,75.75
2022-08-11T19:37:34.573Z,75.00
2022-08-11T19:40:51.235Z,78.82
2022-08-11T19:43:58.034Z,84.72
2022-08-11T19:47:06.902Z,83.55
2022-08-11T19:50:16.582Z,73.45
2022-08-11T19:53:27.568Z,79.57
2022-08-11T19:56:34.838Z,80.00
2022-08-11T19:59:41.091Z,83.85
2022-08-11T20:02:47.827Z,78.18
2022-08-11T20:05:59.666Z,83.15
2022-08-11T20:09:09.291Z,80.22
2022-08-11T20:12:16.704Z,91.75
2022-08-11T20:15:27.829Z,90.13
2022-08-11T20:18:34.886Z,95.88
2022-08-11T20:21:42.790Z,95.95
2022-08-11T20:24:51.532Z,98.20
2022-08-11T20:28:00.737Z,106.45
2022-08-11T20:31:08.225Z,107.53
2022-08-11T20:34:14.619Z,106.45
2022-08-11T20:37:22.839Z,126.93
2022-08-11T20:40:31.393Z,124.95
2022-08-11T20:44:05.480Z,132.60
2022-08-11T20:47:06.525Z,130.85
2022-08-11T20:50:20.310Z,139.88
2022-08-11T20:53:27.922Z,141.30
2022-08-11T20:56:37.217Z,136.38
2022-08-11T20:59:50.195Z,141.95
2022-08-11T21:03:03.662Z,131.50
2022-08-11T21:06:11.142Z,127.75
2022-08-11T21:09:21.019Z,115.65
2022-08-11T21:16:01.671Z,113.45
2022-08-11T21:19:11.110Z,106.47
2022-08-11T21:22:19.005Z,103.35
2022-08-11T21:25:29.335Z,101.30
2022-08-11T21:28:38.478Z,99.35
2022-08-11T21:31:45.284Z,94.15
2022-08-11T21:34:52.581Z,92.00
2022-08-11T21:37:58.340Z,97.88
2022-08-11T21:41:05.400Z,94.85
2022-08-11T21:44:14.384Z,91.05
2022-08-11T21:47:21.480Z,94.47
2022-08-11T21:50:46.907Z,90.78
2022-08-11T21:53:52.916Z,90.88
2022-08-11T21:56:59.209Z,87.10
2022-08-11T22:00:11.189Z,89.80
2022-08-11T22:03:17.817Z,90.78
2022-08-11T22:06:24.197Z,83.55
2022-08-11T22:09:31.079Z,89.93
2022-08-11T22:12:41.040Z,89.57
2022-08-11T22:15:51.766Z,93.07
2022-08-11T22:18:57.560Z,96.78
2022-08-11T22:22:06.182Z,96.55
2022-08-11T22:25:16.667Z,96.63
2022-08-11T22:28:24.299Z,95.47
2022-08-11T22:31:32.038Z,99.05
2022-08-11T22:34:44.949Z,96.65
2022-08-11T22:37:59.599Z,94.22
2022-08-11T22:41:05.349Z,96.32
2022-08-11T22:44:11.174Z,99.65
2022-08-11T22:47:20.415Z,97.88
2022-08-11T22:50:29.405Z,99.68
2022-08-11T22:53:58.325Z,99.70
2022-08-11T22:57:02.140Z,93.80
2022-08-11T23:00:08.823Z,95.90
2022-08-11T23:03:36.909Z,100.13
2022-08-11T23:06:43.323Z,94.72
2022-08-11T23:09:49.892Z,98.97
2022-08-11T23:12:56.287Z,98.22
2022-08-11T23:16:02.037Z,97.97
2022-08-11T23:19:09.316Z,98.97
2022-08-11T23:22:15.362Z,102.78
2022-08-11T23:25:21.036Z,96.70
2022-08-11T23:28:28.426Z,95.57
2022-08-11T23:31:50.323Z,97.93
2022-08-11T23:35:40.216Z,99.75
2022-08-11T23:38:28.284Z,99.20
2022-08-11T23:41:34.237Z,100.90
2022-08-11T23:44:39.991Z,101.32
2022-08-11T23:47:50.355Z,96.28
2022-08-11T23:50:57.715Z,94.25
2022-08-11T23:54:08.025Z,99.97
2022-08-11T23:57:14.518Z,93.38
